Sidney Richland Municipal Airport Sidney US
ICAO: KSDY
IATA: SDY
Category: Medium
Scheduled Services: No

Elevation: 1985 ft
TransAlt. 18000 ft.

Airport Communications:
AWOS 3:119.275
GREAT FALLS RDO:123.65
CTAF/UNICOM:122.8

KSDY Zoom In..

If you have problems with the map follow the link
https://www.worldairports.se/pages/airport.php?
ICAO=KSDY

Runways:

(A) RW 01 length 5705 ft width 100 ft
---- / hdg 15

(B) RW 11 length 4023 ft width 100 ft
---- / hdg 108

(C) RW 19 length 5705 ft width 100 ft
---- / hdg 195

(D) RW 29 length 4023 ft width 100 ft
---- / hdg 288

Location; KSDY
Day. 08 / Time. 03.56 Zulu
* Altimeter: 29.70
* Temperature: 06° c. 42.8°f.
* Wind from: 320° Speed 10 kn.
Dewpoint: 00° c.
Visibility: 10 Statute Miles.
Clouds: Broken 7000 ft.
Clouds: Overcast 8500 ft.

KSDY 080356Z AUTO 32010KT 10SM BKN070 OVC085 06/00 A2970 RMK AO2 RAB0257E11 SLP455 P0000 T00560000


Wind From 320°
Speed 10 kn.

 
 
jpsmedia worldairports.se 2019   terms of use